Pagina principale
METAR-TAF:

METAR-TAF

Aeroporti :

Aeroporto di Majuro

Majuro, Isole Marshall

latitudine: 07-04N, longitudine: 171-17E, altezza: 2 m

Osservazione

Il bollettino è stato emesso 1 ora e 7 minuti fa, alle 23:50 UTC
Vento 9 kt da est
Temperature 30°C
Umidità 75%
Pressione 1010 hPa
Visibilità: 24.1 km
Poco nuvoloso ad un'altezza di 1500 ft
Nubi sparse ad un'altezza di 5000 ft
Nuvoloso ad un'altezza di 30000 ft

METAR: PKMJ 152350Z 09009KT 15SM FEW015 SCT050 BKN300 30/25 A2983 RMK LAST

Ora: 12:57 (00:57 UTC)

Previsione

Il bollettino è stato emesso 1 ora e 25 minuti fa, alle 23:32 UTC
Previsione valida dal 16 alle 00 UTC al 16 alle 24 UTC
Vento 7 kt da est/sud-est
Visibilità: 10 km
Poco nuvoloso ad un'altezza di 1500 ft
Nubi sparse ad un'altezza di 5000 ft

TAF: PKMJ 152332Z 1600/1624 12007KT P6SM FEW015 SCT050

Osservazioni e previsioni meteorologiche di più di 4000 aeroporti (messaggi METAR e TAF).

Le stazioni disponibili sono rappresentate dai dischi gialli e rossi sulla carta.

Puntare il mouse per vedere il nome della stazione.

Clicca sopra per visualizzare le osservazioni e previsioni meteorologiche.

Per cambiare la mappa : fare clic sui pulsanti verdi con una croce nera per ingrandire, il pulsante verde con un trattino per diminuire, o sulla freccia verde per le mappe adiacenti.


METAR-TAF: